createdAt,value
2022-10-30T12:32:06.190Z,3.22
2022-10-30T12:34:55.194Z,2.30
2022-10-30T12:37:29.886Z,2.42
2022-10-30T12:40:26.091Z,3.15
2022-10-30T12:43:11.671Z,2.72
2022-10-30T12:45:46.374Z,2.42
2022-10-30T12:48:26.094Z,3.20
2022-10-30T12:51:06.658Z,3.22
2022-10-30T12:53:52.183Z,3.03
2022-10-30T12:56:25.398Z,2.97
2022-10-30T12:59:02.774Z,3.05
2022-10-30T13:01:35.484Z,2.90
2022-10-30T13:04:08.356Z,2.25
2022-10-30T13:07:00.880Z,2.63
2022-10-30T13:09:42.515Z,2.80
2022-10-30T13:12:14.058Z,3.20
2022-10-30T13:14:46.540Z,2.88
2022-10-30T13:17:22.233Z,3.03
2022-10-30T13:19:51.752Z,3.28
2022-10-30T13:22:37.138Z,3.45
2022-10-30T13:25:19.555Z,2.53
2022-10-30T13:28:00.552Z,2.75
2022-10-30T13:30:34.076Z,2.97
2022-10-30T13:33:23.362Z,3.20
2022-10-30T13:35:59.544Z,3.13
2022-10-30T13:38:43.003Z,3.03
2022-10-30T13:41:19.091Z,3.20
2022-10-30T13:44:06.481Z,3.13
2022-10-30T13:46:53.917Z,3.22
2022-10-30T13:49:23.379Z,2.83
2022-10-30T13:51:55.901Z,2.95
2022-10-30T13:54:32.574Z,2.90
2022-10-30T13:57:10.466Z,2.58
2022-10-30T13:59:46.092Z,2.70
2022-10-30T14:02:34.490Z,2.80
2022-10-30T14:05:19.925Z,2.60
2022-10-30T14:08:28.144Z,2.75
2022-10-30T14:11:03.813Z,2.95
2022-10-30T14:13:56.503Z,2.67
2022-10-30T14:16:58.072Z,2.92
2022-10-30T14:19:50.436Z,3.22
2022-10-30T14:22:24.974Z,2.60
2022-10-30T14:24:58.198Z,3.30
2022-10-30T14:27:36.946Z,3.00
2022-10-30T14:30:17.532Z,2.90
2022-10-30T14:32:54.672Z,2.55
2022-10-30T14:35:33.218Z,2.75
2022-10-30T14:38:22.915Z,2.72
2022-10-30T14:41:01.632Z,2.80
2022-10-30T14:43:53.908Z,2.67
2022-10-30T14:46:44.761Z,3.05
2022-10-30T14:49:35.551Z,2.63
2022-10-30T14:52:25.751Z,2.60
2022-10-30T14:55:14.602Z,2.78
2022-10-30T14:57:50.581Z,2.30
2022-10-30T15:00:24.570Z,2.28
2022-10-30T15:03:09.679Z,2.50
2022-10-30T15:05:58.089Z,2.22
2022-10-30T15:08:47.125Z,2.47
2022-10-30T15:11:18.122Z,2.47
2022-10-30T15:13:56.141Z,2.25
2022-10-30T15:16:27.551Z,2.08
2022-10-30T15:19:06.213Z,2.25
2022-10-30T15:21:42.419Z,2.80
2022-10-30T15:24:19.260Z,2.47
2022-10-30T15:26:53.519Z,2.28
2022-10-30T15:29:26.533Z,2.58
2022-10-30T15:32:06.939Z,2.83
2022-10-30T15:34:57.339Z,2.72
2022-10-30T15:37:32.783Z,2.53
2022-10-30T15:42:48.633Z,3.15
2022-10-30T15:45:23.870Z,2.90
2022-10-30T15:51:16.570Z,2.65
2022-10-30T15:53:55.350Z,2.58
2022-10-30T15:56:44.477Z,2.47
2022-10-30T15:59:32.784Z,2.92
2022-10-30T16:02:25.694Z,2.90
2022-10-30T16:05:08.097Z,2.40
2022-10-30T16:07:46.971Z,2.33
2022-10-30T16:10:22.802Z,2.97
2022-10-30T16:13:00.874Z,2.45
2022-10-30T16:15:43.856Z,2.90
2022-10-30T16:18:32.670Z,2.70
2022-10-30T16:21:09.757Z,2.80
2022-10-30T16:23:44.948Z,2.97
2022-10-30T16:26:36.673Z,2.92
2022-10-30T16:29:23.321Z,2.70
2022-10-30T16:31:56.539Z,2.63
2022-10-30T16:34:43.982Z,2.40
2022-10-30T16:37:30.624Z,2.60
2022-10-30T16:40:15.723Z,2.80
2022-10-30T16:42:52.818Z,2.28
2022-10-30T16:45:25.858Z,2.50
2022-10-30T16:48:08.965Z,2.42
2022-10-30T16:50:48.540Z,2.53
2022-10-30T16:53:28.590Z,2.15
2022-10-30T16:56:02.210Z,2.40
2022-10-30T16:58:36.958Z,2.40
2022-10-30T17:01:13.102Z,2.97
2022-10-30T17:03:50.569Z,3.15
2022-10-30T17:06:29.325Z,2.33
2022-10-30T17:09:00.509Z,2.25
2022-10-30T17:11:43.078Z,2.47
2022-10-30T17:14:36.615Z,2.55
2022-10-30T17:17:24.029Z,2.45
2022-10-30T17:20:04.469Z,2.55
2022-10-30T17:22:47.899Z,2.50
2022-10-30T17:25:32.375Z,2.67
2022-10-30T17:28:08.243Z,2.55
2022-10-30T17:30:42.734Z,2.67
2022-10-30T17:33:32.859Z,2.28
2022-10-30T17:36:02.562Z,2.63
2022-10-30T17:38:41.869Z,2.50
2022-10-30T17:41:20.543Z,2.30
2022-10-30T17:43:51.114Z,2.90
2022-10-30T17:46:24.750Z,2.20
2022-10-30T17:48:54.910Z,2.60
2022-10-30T17:51:29.603Z,2.72
2022-10-30T17:54:02.123Z,2.10
2022-10-30T17:56:33.775Z,1.98
2022-10-30T17:59:08.762Z,2.50
2022-10-30T18:01:41.508Z,2.55
2022-10-30T18:04:20.799Z,2.50
2022-10-30T18:06:56.741Z,2.22
2022-10-30T18:09:30.881Z,2.30
2022-10-30T18:12:00.323Z,2.45
2022-10-30T18:14:43.780Z,2.15
2022-10-30T18:17:19.882Z,2.33
2022-10-30T18:19:55.789Z,2.78
2022-10-30T18:22:31.321Z,2.30
2022-10-30T18:25:07.335Z,2.50
2022-10-30T18:27:47.125Z,2.75
2022-10-30T18:30:19.614Z,2.40
2022-10-30T18:32:47.016Z,2.47
2022-10-30T18:35:27.883Z,2.35
2022-10-30T18:37:58.482Z,2.25
2022-10-30T18:40:30.286Z,2.53
2022-10-30T18:42:57.531Z,2.22
2022-10-30T18:45:26.308Z,2.53
2022-10-30T18:48:01.047Z,2.20
2022-10-30T18:50:38.405Z,2.03
2022-10-30T18:53:21.940Z,2.50
2022-10-30T18:55:55.235Z,2.35
2022-10-30T18:58:25.279Z,2.08
2022-10-30T19:01:11.505Z,2.42
2022-10-30T19:03:42.784Z,2.50
2022-10-30T19:06:18.842Z,2.33
2022-10-30T19:08:54.182Z,2.67
2022-10-30T19:11:30.948Z,2.30
2022-10-30T19:14:01.666Z,2.38
2022-10-30T19:16:34.342Z,2.08
2022-10-30T19:19:04.584Z,2.83
2022-10-30T19:21:34.822Z,2.40
2022-10-30T19:24:19.551Z,2.53
2022-10-30T19:26:53.395Z,2.35
2022-10-30T19:29:26.546Z,2.20
2022-10-30T19:31:59.978Z,2.08
2022-10-30T19:34:27.605Z,2.20
2022-10-30T19:37:07.333Z,2.28
2022-10-30T19:39:39.945Z,2.53
2022-10-30T19:42:07.622Z,2.30
2022-10-30T19:44:40.776Z,1.95
2022-10-30T19:47:09.603Z,2.50
2022-10-30T19:49:40.540Z,2.55
2022-10-30T19:52:12.322Z,2.38
2022-10-30T19:54:45.742Z,2.13
2022-10-30T19:57:22.558Z,2.00
2022-10-30T19:59:53.822Z,2.33
2022-10-30T20:02:27.736Z,2.20
2022-10-30T20:05:03.781Z,2.15
2022-10-30T20:07:33.064Z,2.00
2022-10-30T20:10:00.733Z,2.35
2022-10-30T20:12:37.588Z,2.05
2022-10-30T20:15:15.177Z,2.00
2022-10-30T20:17:51.493Z,2.05
2022-10-30T20:20:28.351Z,2.13
2022-10-30T20:22:58.670Z,2.20
2022-10-30T20:25:35.410Z,2.22
2022-10-30T20:28:09.756Z,2.25
2022-10-30T20:30:43.506Z,1.73
2022-10-30T20:33:18.242Z,1.98
2022-10-30T20:35:50.868Z,1.90
2022-10-30T20:38:30.140Z,2.15
2022-10-30T20:41:00.628Z,2.20
2022-10-30T20:43:44.716Z,2.30
2022-10-30T20:46:17.746Z,1.98
2022-10-30T20:48:48.682Z,2.45
2022-10-30T20:51:20.347Z,2.00
2022-10-30T20:53:56.197Z,2.10
2022-10-30T20:56:29.123Z,2.03
2022-10-30T20:59:05.344Z,1.88
2022-10-30T21:01:34.094Z,1.65
2022-10-30T21:04:09.653Z,1.90
2022-10-30T21:06:41.532Z,2.22
2022-10-30T21:09:15.284Z,1.75
2022-10-30T21:11:46.461Z,1.80
2022-10-30T21:14:13.979Z,1.95
2022-10-30T21:16:46.064Z,1.95
2022-10-30T21:19:16.405Z,1.80
2022-10-30T21:21:48.991Z,1.83
2022-10-30T21:24:17.094Z,2.10
2022-10-30T21:26:49.556Z,2.10
2022-10-30T21:29:25.452Z,1.88
2022-10-30T21:31:54.991Z,2.35
2022-10-30T21:34:24.672Z,1.92
2022-10-30T21:36:55.547Z,1.73
2022-10-30T21:39:22.935Z,1.65
2022-10-30T21:41:49.946Z,1.98
2022-10-30T21:44:20.339Z,1.67
2022-10-30T21:46:52.616Z,1.90
2022-10-30T21:49:26.209Z,1.92
2022-10-30T21:51:53.431Z,1.77
2022-10-30T21:54:21.263Z,2.33
2022-10-30T21:56:55.651Z,2.28
2022-10-30T21:59:27.454Z,2.08
2022-10-30T22:01:57.670Z,1.60
2022-10-30T22:04:30.095Z,2.00
2022-10-30T22:07:00.650Z,1.98
2022-10-30T22:09:31.144Z,1.60
2022-10-30T22:12:02.277Z,1.85
2022-10-30T22:14:32.855Z,1.90
2022-10-30T22:17:06.537Z,1.60
2022-10-30T22:19:33.568Z,1.80
2022-10-30T22:22:01.337Z,2.00
2022-10-30T22:24:33.178Z,1.67
2022-10-30T22:27:03.923Z,1.50
2022-10-30T22:29:33.995Z,1.70
2022-10-30T22:32:09.289Z,1.77
2022-10-30T22:34:41.977Z,1.80
2022-10-30T22:37:23.695Z,1.60
2022-10-30T22:40:04.716Z,1.63
2022-10-30T22:42:41.579Z,1.67
2022-10-30T22:45:24.535Z,1.92
2022-10-30T22:48:06.963Z,1.85
2022-10-30T22:50:51.708Z,1.60
2022-10-30T22:53:30.517Z,2.05
2022-10-30T22:56:07.291Z,1.70
2022-10-30T22:58:46.396Z,1.85
2022-10-30T23:01:26.671Z,1.60
2022-10-30T23:04:03.224Z,2.00
2022-10-30T23:06:43.052Z,1.48
2022-10-30T23:09:16.789Z,2.10
2022-10-30T23:11:56.255Z,1.40
2022-10-30T23:14:34.718Z,1.98
2022-10-30T23:17:10.622Z,1.58
2022-10-30T23:19:52.542Z,1.70
2022-10-30T23:22:24.237Z,1.63
2022-10-30T23:24:56.557Z,1.77
2022-10-30T23:27:33.199Z,1.40
2022-10-30T23:30:16.136Z,1.90
2022-10-30T23:32:51.381Z,1.95
2022-10-30T23:35:25.081Z,2.03
2022-10-30T23:38:03.707Z,1.70
2022-10-30T23:40:42.533Z,1.60
2022-10-30T23:43:26.842Z,2.10
2022-10-30T23:46:02.467Z,2.20
2022-10-30T23:48:50.289Z,1.60
2022-10-30T23:51:26.301Z,1.80
2022-10-30T23:54:05.414Z,1.90
2022-10-30T23:56:40.056Z,2.10
2022-10-30T23:59:18.416Z,1.65
